createdAt,value
2017-12-29T00:00:49.160Z,100174.56
2017-12-29T00:03:15.117Z,100170.91
2017-12-29T00:05:41.079Z,100177.59
2017-12-29T00:08:07.025Z,100184.20
2017-12-29T00:10:32.985Z,100186.09
2017-12-29T00:12:58.941Z,100182.44
2017-12-29T00:15:24.894Z,100186.16
2017-12-29T00:17:50.861Z,100197.10
2017-12-29T00:20:16.813Z,100197.02
2017-12-29T00:22:42.765Z,100200.33
2017-12-29T00:25:08.742Z,100199.66
2017-12-29T00:27:34.689Z,100200.91
2017-12-29T00:30:00.649Z,100207.66
2017-12-29T00:32:26.633Z,100203.81
2017-12-29T00:34:52.595Z,100208.50
2017-12-29T00:37:18.570Z,100209.50
2017-12-29T00:39:44.547Z,100214.17
2017-12-29T00:42:11.506Z,100210.38
2017-12-29T00:44:37.491Z,100206.05
2017-12-29T00:47:03.441Z,100209.92
2017-12-29T00:49:29.393Z,100213.73
2017-12-29T00:51:55.365Z,100212.21
2017-12-29T00:54:21.310Z,100216.69
2017-12-29T00:56:47.282Z,100215.29
2017-12-29T00:59:13.239Z,100220.00
2017-12-29T01:01:39.249Z,100227.16
2017-12-29T01:04:05.198Z,100224.46
2017-12-29T01:06:31.167Z,100231.77
2017-12-29T01:08:57.117Z,100230.27
2017-12-29T01:11:23.100Z,100230.67
2017-12-29T01:13:49.055Z,100234.41
2017-12-29T01:16:15.022Z,100235.22
2017-12-29T01:18:40.961Z,100242.55
2017-12-29T01:21:06.921Z,100241.26
2017-12-29T01:23:32.881Z,100250.26
2017-12-29T01:25:58.833Z,100249.03
2017-12-29T01:28:24.786Z,100245.25
2017-12-29T01:30:50.730Z,100244.22
2017-12-29T01:33:16.674Z,100240.73
2017-12-29T01:35:42.637Z,100245.30
2017-12-29T01:38:08.576Z,100245.10
2017-12-29T01:40:34.554Z,100242.41
2017-12-29T01:43:00.514Z,100248.15
2017-12-29T01:45:26.481Z,100250.55
2017-12-29T01:47:52.422Z,100250.20
2017-12-29T01:50:18.378Z,100251.34
2017-12-29T01:52:44.342Z,100255.85
2017-12-29T01:55:10.284Z,100252.11
2017-12-29T01:57:36.239Z,100257.56
2017-12-29T02:00:02.207Z,100256.30
2017-12-29T02:02:28.153Z,100263.71
2017-12-29T02:04:54.102Z,100260.48
2017-12-29T02:07:20.078Z,100260.55
2017-12-29T02:09:46.044Z,100262.22
2017-12-29T02:12:12.006Z,100262.48
2017-12-29T02:14:37.957Z,100262.30
2017-12-29T02:17:03.922Z,100260.89
2017-12-29T02:19:29.890Z,100267.58
2017-12-29T02:21:55.853Z,100269.33
2017-12-29T02:24:21.833Z,100261.98
2017-12-29T02:26:47.785Z,100268.93
2017-12-29T02:29:13.865Z,100262.32
2017-12-29T02:31:39.857Z,100255.46
2017-12-29T02:34:05.812Z,100255.50
2017-12-29T02:36:31.774Z,100258.31
2017-12-29T02:38:57.798Z,100259.62
2017-12-29T02:41:23.750Z,100259.27
2017-12-29T02:43:49.698Z,100271.47
2017-12-29T02:46:15.681Z,100261.86
2017-12-29T02:48:41.630Z,100257.10
2017-12-29T02:51:07.582Z,100255.69
2017-12-29T02:53:33.530Z,100253.91
2017-12-29T02:55:59.497Z,100258.83
2017-12-29T02:58:25.445Z,100258.64
2017-12-29T03:00:51.407Z,100256.23
2017-12-29T03:03:17.346Z,100257.91
2017-12-29T03:05:43.285Z,100248.91
2017-12-29T03:08:09.232Z,100253.05
2017-12-29T03:10:35.221Z,100248.96
2017-12-29T03:13:01.171Z,100247.92
2017-12-29T03:15:27.119Z,100242.83
2017-12-29T03:17:53.062Z,100237.41
2017-12-29T03:20:19.025Z,100239.95
2017-12-29T03:22:45.005Z,100245.39
2017-12-29T03:25:10.948Z,100249.69
2017-12-29T03:27:36.894Z,100249.37
2017-12-29T03:30:02.841Z,100244.20
2017-12-29T03:32:28.785Z,100248.25
2017-12-29T03:34:54.760Z,100242.91
2017-12-29T03:37:20.715Z,100246.32
2017-12-29T03:39:46.673Z,100237.23
2017-12-29T03:42:12.613Z,100224.72
2017-12-29T03:44:38.568Z,100226.83
2017-12-29T03:47:04.518Z,100222.93
2017-12-29T03:49:30.681Z,100223.55
2017-12-29T03:51:56.654Z,100219.69
2017-12-29T03:54:22.616Z,100216.48
2017-12-29T03:56:48.589Z,100218.43
2017-12-29T03:59:14.572Z,100215.67
2017-12-29T04:01:40.536Z,100214.55
2017-12-29T04:04:06.482Z,100224.28
2017-12-29T04:06:32.456Z,100223.64
2017-12-29T04:08:58.431Z,100217.73
2017-12-29T04:11:24.387Z,100219.44
2017-12-29T04:13:50.356Z,100219.62
2017-12-29T04:16:16.293Z,100224.16
2017-12-29T04:18:42.254Z,100232.25
2017-12-29T04:21:08.201Z,100236.81
2017-12-29T04:23:34.161Z,100241.25
2017-12-29T04:26:00.116Z,100248.17
2017-12-29T04:28:26.100Z,100243.27
2017-12-29T04:30:52.042Z,100244.44
2017-12-29T04:33:17.998Z,100250.22
2017-12-29T04:35:43.945Z,100255.20
2017-12-29T04:38:09.895Z,100250.31
2017-12-29T04:40:35.878Z,100251.62
2017-12-29T04:43:01.789Z,100250.45
2017-12-29T04:45:27.762Z,100248.65
2017-12-29T04:47:53.709Z,100257.72
2017-12-29T04:50:19.679Z,100256.39
2017-12-29T04:52:45.651Z,100259.97
2017-12-29T04:55:11.605Z,100265.25
2017-12-29T04:57:37.548Z,100268.12
2017-12-29T05:00:03.514Z,100271.52
2017-12-29T05:02:29.477Z,100269.14
2017-12-29T05:04:55.426Z,100278.88
2017-12-29T05:07:21.597Z,100273.51
2017-12-29T05:09:47.531Z,100276.14
2017-12-29T05:12:13.471Z,100273.51
2017-12-29T05:14:39.440Z,100270.10
2017-12-29T05:17:05.385Z,100270.53
2017-12-29T05:19:31.340Z,100263.76
2017-12-29T05:21:57.305Z,100261.53
2017-12-29T05:24:23.305Z,100267.64
2017-12-29T05:26:49.225Z,100261.80
2017-12-29T05:29:15.187Z,100255.43
2017-12-29T05:31:41.173Z,100261.12
2017-12-29T05:34:07.113Z,100260.58
2017-12-29T05:36:33.060Z,100258.74
2017-12-29T05:38:59.078Z,100262.80
2017-12-29T05:41:25.070Z,100259.41
2017-12-29T05:43:51.029Z,100262.28
2017-12-29T05:46:16.977Z,100266.33
2017-12-29T05:48:42.925Z,100268.73
2017-12-29T05:51:08.869Z,100264.45
2017-12-29T05:53:34.841Z,100262.05
2017-12-29T05:56:00.793Z,100261.88
2017-12-29T05:58:26.736Z,100255.36
2017-12-29T06:00:52.698Z,100258.42
2017-12-29T06:03:18.647Z,100258.13
2017-12-29T06:05:44.609Z,100253.11
2017-12-29T06:08:10.572Z,100250.14
2017-12-29T06:10:36.545Z,100254.45
2017-12-29T06:13:02.502Z,100248.91
2017-12-29T06:15:28.438Z,100253.04
2017-12-29T06:17:54.393Z,100249.41
2017-12-29T06:20:20.349Z,100242.31
2017-12-29T06:22:46.305Z,100248.42
2017-12-29T06:25:12.244Z,100249.42
2017-12-29T06:27:38.215Z,100245.55
2017-12-29T06:30:04.341Z,100252.79
2017-12-29T06:32:30.301Z,100247.66
2017-12-29T06:34:56.250Z,100246.95
2017-12-29T06:37:22.206Z,100249.27
2017-12-29T06:39:48.177Z,100246.44
2017-12-29T06:42:14.121Z,100244.97
2017-12-29T08:28:45.141Z,100207.00
2017-12-29T08:31:11.097Z,100212.38
2017-12-29T08:33:37.078Z,100207.70
2017-12-29T08:36:03.022Z,100209.50
2017-12-29T08:38:28.970Z,100207.92
2017-12-29T08:40:54.943Z,100207.67
2017-12-29T08:43:20.894Z,100204.70
2017-12-29T08:45:46.888Z,100191.17
2017-12-29T08:48:12.829Z,100189.93
2017-12-29T08:50:38.818Z,100190.67
2017-12-29T08:53:04.759Z,100178.64
2017-12-29T08:55:30.744Z,100174.08
2017-12-29T08:57:56.709Z,100170.61
2017-12-29T09:00:22.669Z,100172.03
2017-12-29T09:02:48.633Z,100167.72
2017-12-29T09:05:14.618Z,100165.16
2017-12-29T09:07:40.582Z,100162.52
2017-12-29T09:10:06.709Z,100160.78
2017-12-29T09:12:32.666Z,100144.63
2017-12-29T09:14:58.626Z,100136.85
2017-12-29T09:17:25.758Z,100132.66
2017-12-29T09:19:51.724Z,100136.28
2017-12-29T09:22:17.683Z,100123.06
2017-12-29T09:24:43.634Z,100123.88
2017-12-29T09:27:09.594Z,100122.80
2017-12-29T09:29:35.585Z,100113.91
2017-12-29T09:32:01.542Z,100120.73
2017-12-29T09:34:27.647Z,100116.53
2017-12-29T09:36:53.634Z,100112.43
2017-12-29T09:39:19.610Z,100108.52
2017-12-29T09:41:45.599Z,100098.55
2017-12-29T09:44:11.561Z,100095.42
2017-12-29T09:46:37.985Z,100091.93
2017-12-29T09:49:04.021Z,100090.93
2017-12-29T09:51:30.122Z,100094.64
2017-12-29T09:53:56.077Z,100096.15
2017-12-29T09:56:22.054Z,100098.19
2017-12-29T09:58:48.003Z,100102.25
2017-12-29T10:01:13.968Z,100097.38
2017-12-29T10:03:39.917Z,100094.57
2017-12-29T10:06:05.886Z,100085.42
2017-12-29T10:08:31.866Z,100080.70
2017-12-29T10:10:57.898Z,100080.95
2017-12-29T10:13:23.858Z,100069.91
2017-12-29T10:15:49.801Z,100069.98
2017-12-29T10:18:15.793Z,100072.27
2017-12-29T10:20:41.737Z,100068.74
2017-12-29T10:23:07.698Z,100071.13
2017-12-29T10:25:33.658Z,100065.44
2017-12-29T10:27:59.613Z,100063.05
2017-12-29T10:30:25.591Z,100066.01
2017-12-29T10:32:51.562Z,100053.40
2017-12-29T10:35:17.534Z,100069.34
2017-12-29T10:37:44.286Z,100050.41
2017-12-29T10:40:10.378Z,100050.48
2017-12-29T10:42:36.334Z,100040.98
2017-12-29T10:45:02.351Z,100045.34
2017-12-29T10:47:28.313Z,100035.09
2017-12-29T10:49:54.260Z,100031.53
2017-12-29T10:52:20.230Z,100013.23
2017-12-29T10:54:46.183Z,100012.06
2017-12-29T10:57:12.364Z,100002.92
2017-12-29T10:59:38.388Z,99985.08
2017-12-29T11:02:04.363Z,99982.40
2017-12-29T11:04:30.301Z,99985.75
2017-12-29T11:06:56.278Z,99979.11
2017-12-29T11:09:22.217Z,99971.16
2017-12-29T11:11:48.182Z,99956.32
2017-12-29T11:14:14.157Z,99957.39
2017-12-29T11:16:43.959Z,99954.95
2017-12-29T11:19:09.920Z,99946.30
2017-12-29T11:21:35.874Z,99933.50
2017-12-29T11:24:01.859Z,99934.52
2017-12-29T11:26:27.807Z,99938.38
2017-12-29T11:28:54.885Z,99921.97
2017-12-29T11:31:20.842Z,99918.47
2017-12-29T11:33:46.806Z,99913.03
2017-12-29T11:36:12.760Z,99906.73
2017-12-29T11:38:38.702Z,99904.34
2017-12-29T11:41:04.809Z,99901.40
2017-12-29T11:43:30.770Z,99907.09
2017-12-29T11:45:56.777Z,99892.31
2017-12-29T11:48:22.721Z,99888.81
2017-12-29T11:50:48.713Z,99890.62
2017-12-29T11:53:14.668Z,99883.58
2017-12-29T11:55:40.645Z,99878.09
2017-12-29T11:58:06.597Z,99873.26
2017-12-29T12:00:32.558Z,99866.65
2017-12-29T12:02:58.533Z,99887.68
2017-12-29T12:05:24.485Z,99879.50
2017-12-29T12:07:51.039Z,99876.13
2017-12-29T12:10:16.986Z,99865.14
2017-12-29T12:12:42.937Z,99853.67
2017-12-29T12:15:08.882Z,99851.76
2017-12-29T12:17:34.862Z,99849.88
2017-12-29T12:20:00.973Z,99848.66
2017-12-29T12:22:26.923Z,99836.28
2017-12-29T12:24:52.901Z,99835.95
2017-12-29T12:27:18.869Z,99835.42
2017-12-29T12:29:44.786Z,99823.27
2017-12-29T12:32:10.735Z,99808.69
2017-12-29T12:34:36.749Z,99803.59
2017-12-29T12:37:02.749Z,99793.48
2017-12-29T12:39:28.865Z,99787.71
2017-12-29T12:41:54.826Z,99780.95
2017-12-29T12:44:20.770Z,99763.05
2017-12-29T12:46:46.753Z,99771.43
2017-12-29T12:49:12.702Z,99758.95
2017-12-29T12:51:38.653Z,99740.70
2017-12-29T12:54:04.627Z,99742.86
2017-12-29T12:56:30.582Z,99744.43
2017-12-29T12:58:56.556Z,99742.28
2017-12-29T13:01:22.517Z,99726.98
2017-12-29T13:03:48.469Z,99709.09
2017-12-29T13:06:15.546Z,99692.18
2017-12-29T13:08:41.495Z,99683.16
2017-12-29T13:11:07.443Z,99665.53
2017-12-29T13:13:33.425Z,99659.88
2017-12-29T13:15:59.390Z,99650.19
2017-12-29T13:18:25.331Z,99635.84
2017-12-29T13:20:51.293Z,99626.70
2017-12-29T13:23:17.244Z,99625.95
2017-12-29T13:25:43.198Z,99616.23
2017-12-29T13:28:09.180Z,99613.62
2017-12-29T13:30:35.124Z,99607.89
2017-12-29T13:33:01.110Z,99606.65
2017-12-29T13:35:27.083Z,99596.95
2017-12-29T13:37:53.020Z,99589.31
2017-12-29T13:40:19.027Z,99580.73
2017-12-29T13:42:44.948Z,99578.12
2017-12-29T13:45:10.913Z,99581.47
2017-12-29T13:47:37.967Z,99570.06
2017-12-29T13:50:03.946Z,99575.84
2017-12-29T13:52:29.905Z,99562.74
2017-12-29T13:54:55.991Z,99554.20
2017-12-29T13:57:21.947Z,99546.92
2017-12-29T13:59:47.910Z,99536.59
2017-12-29T14:02:13.897Z,99540.86
2017-12-29T14:07:11.688Z,99512.46
2017-12-29T14:09:37.659Z,99512.25
2017-12-29T14:12:03.624Z,99511.50
2017-12-29T14:14:29.569Z,99486.95
2017-12-29T14:16:55.560Z,99471.98
2017-12-29T14:19:21.546Z,99462.64
2017-12-29T14:21:53.746Z,99451.47
2017-12-29T14:24:19.690Z,99442.56
2017-12-29T14:26:45.882Z,99433.86
2017-12-29T14:29:12.009Z,99419.64
2017-12-29T14:31:37.956Z,99418.25
2017-12-29T14:34:03.934Z,99414.56
2017-12-29T14:36:29.885Z,99406.43
2017-12-29T14:38:55.841Z,99419.70
2017-12-29T14:41:21.792Z,99418.95
2017-12-29T14:43:47.730Z,99420.95
2017-12-29T14:46:13.791Z,99427.80
2017-12-29T14:48:39.740Z,99435.41
2017-12-29T14:51:05.735Z,99429.08
2017-12-29T14:53:31.693Z,99427.92
2017-12-29T14:55:57.625Z,99420.50
2017-12-29T14:58:23.585Z,99413.58
2017-12-29T15:00:49.533Z,99426.88
2017-12-29T15:03:15.517Z,99428.56
2017-12-29T15:05:41.469Z,99425.37
2017-12-29T15:08:07.759Z,99426.70
2017-12-29T15:10:33.723Z,99420.60
2017-12-29T15:12:59.680Z,99406.28
2017-12-29T15:15:25.665Z,99401.55
2017-12-29T15:17:51.617Z,99395.35
2017-12-29T15:20:17.602Z,99403.87
2017-12-29T15:22:43.558Z,99405.05
2017-12-29T15:25:09.507Z,99396.54
2017-12-29T15:27:35.458Z,99394.31
2017-12-29T15:30:01.402Z,99396.10
2017-12-29T15:32:27.394Z,99389.15
2017-12-29T15:34:53.341Z,99382.48
2017-12-29T15:37:19.357Z,99379.44
2017-12-29T15:39:45.512Z,99371.52
2017-12-29T15:42:11.646Z,99367.05
2017-12-29T15:44:37.585Z,99362.20
2017-12-29T15:47:03.832Z,99353.41
2017-12-29T15:49:31.961Z,99344.72
2017-12-29T15:51:58.104Z,99337.14
2017-12-29T15:54:24.192Z,99338.02
2017-12-29T15:56:50.353Z,99336.81
2017-12-29T15:59:16.492Z,99334.50
2017-12-29T16:01:42.624Z,99321.80
2017-12-29T16:04:08.791Z,99312.33
2017-12-29T16:06:34.912Z,99310.47
2017-12-29T16:09:01.064Z,99304.12
2017-12-29T16:11:27.031Z,99290.78
2017-12-29T16:13:52.981Z,99281.94
2017-12-29T16:16:18.940Z,99279.60
2017-12-29T16:18:44.897Z,99277.25
2017-12-29T16:21:10.930Z,99270.57
2017-12-29T16:23:36.887Z,99279.01
2017-12-29T16:26:02.856Z,99272.06
2017-12-29T16:28:28.798Z,99267.42
2017-12-29T16:30:54.749Z,99271.45
2017-12-29T16:33:20.717Z,99270.29
2017-12-29T16:35:46.663Z,99266.97
2017-12-29T16:38:12.623Z,99266.63
2017-12-29T16:40:38.581Z,99265.69
2017-12-29T16:43:04.523Z,99263.69
2017-12-29T16:45:30.489Z,99257.72
2017-12-29T16:47:56.448Z,99259.16
2017-12-29T16:50:22.402Z,99257.70
2017-12-29T16:52:48.358Z,99257.48
2017-12-29T16:55:14.331Z,99250.19
2017-12-29T16:57:40.288Z,99243.72
2017-12-29T17:00:06.268Z,99237.05
2017-12-29T17:02:32.214Z,99232.75
2017-12-29T17:04:58.224Z,99231.09
2017-12-29T17:07:24.173Z,99234.90
2017-12-29T17:09:50.132Z,99231.32
2017-12-29T17:12:16.087Z,99223.96
2017-12-29T17:14:42.038Z,99224.10
2017-12-29T17:17:07.993Z,99217.05
2017-12-29T17:19:33.981Z,99238.14
2017-12-29T17:21:59.932Z,99224.38
2017-12-29T17:24:25.921Z,99216.42
2017-12-29T17:26:51.937Z,99218.67
2017-12-29T17:29:17.879Z,99227.97
2017-12-29T17:31:43.841Z,99225.70
2017-12-29T17:34:09.845Z,99226.53
2017-12-29T17:36:35.799Z,99236.97
2017-12-29T17:39:01.743Z,99241.30
2017-12-29T17:41:27.757Z,99244.63
2017-12-29T17:43:53.725Z,99248.16
2017-12-29T17:46:19.694Z,99249.76
2017-12-29T17:48:45.660Z,99250.11
2017-12-29T17:51:11.673Z,99254.18
2017-12-29T17:53:42.403Z,99257.58
2017-12-29T17:56:08.371Z,99266.58
2017-12-29T17:58:34.314Z,99273.71
2017-12-29T18:01:00.492Z,99267.12
2017-12-29T18:03:26.442Z,99267.31
2017-12-29T18:05:52.405Z,99267.17
2017-12-29T18:08:18.377Z,99268.16
2017-12-29T18:10:44.332Z,99280.12
2017-12-29T18:13:10.318Z,99278.27
2017-12-29T18:15:36.371Z,99284.33
2017-12-29T18:18:02.334Z,99283.14
2017-12-29T18:20:28.314Z,99281.74
2017-12-29T18:22:54.282Z,99284.30
2017-12-29T18:25:20.292Z,99289.89
2017-12-29T18:27:46.270Z,99291.06
2017-12-29T18:30:12.240Z,99295.92
2017-12-29T18:32:38.193Z,99301.25
2017-12-29T18:35:04.215Z,99300.06
2017-12-29T18:37:30.181Z,99303.44
2017-12-29T18:39:56.146Z,99309.17
2017-12-29T18:42:22.185Z,99315.14
2017-12-29T18:44:48.170Z,99324.09
2017-12-29T18:47:14.123Z,99322.61
2017-12-29T18:49:40.114Z,99325.41
2017-12-29T18:52:06.069Z,99331.35
2017-12-29T18:54:32.040Z,99334.38
2017-12-29T18:56:58.027Z,99328.33
2017-12-29T18:59:24.027Z,99333.44
2017-12-29T19:01:51.172Z,99338.06
2017-12-29T19:04:17.130Z,99335.50
2017-12-29T19:06:43.107Z,99335.02
2017-12-29T19:09:09.050Z,99340.00
2017-12-29T19:11:34.995Z,99336.95
2017-12-29T19:14:00.961Z,99340.77
2017-12-29T19:16:26.948Z,99345.81
2017-12-29T19:18:52.882Z,99347.69
2017-12-29T19:21:18.866Z,99356.70
2017-12-29T19:23:44.830Z,99360.96
2017-12-29T19:26:10.791Z,99357.64
2017-12-29T19:28:36.771Z,99360.81
2017-12-29T19:31:06.534Z,99361.60
2017-12-29T19:33:32.488Z,99370.01
2017-12-29T19:35:58.448Z,99373.61
2017-12-29T19:38:24.408Z,99375.36
2017-12-29T19:40:50.372Z,99377.06
2017-12-29T19:43:16.309Z,99376.78
2017-12-29T19:45:42.279Z,99377.74
2017-12-29T19:48:08.224Z,99380.20
2017-12-29T19:50:34.187Z,99390.21
2017-12-29T19:53:00.145Z,99396.81
2017-12-29T19:55:26.124Z,99397.27
2017-12-29T19:57:52.083Z,99405.05
2017-12-29T20:00:18.031Z,99421.51
2017-12-29T20:02:44.034Z,99428.24
2017-12-29T20:05:10.001Z,99423.71
2017-12-29T20:07:35.976Z,99417.09
2017-12-29T20:10:01.934Z,99421.05
2017-12-29T20:12:27.882Z,99436.78
2017-12-29T20:14:53.837Z,99444.57
2017-12-29T20:17:19.795Z,99444.30
2017-12-29T20:19:45.762Z,99444.23
2017-12-29T20:22:11.709Z,99445.70
2017-12-29T20:24:37.671Z,99455.11
2017-12-29T20:27:04.352Z,99461.45
2017-12-29T20:29:30.305Z,99467.59
2017-12-29T20:31:58.301Z,99467.95
2017-12-29T20:34:24.247Z,99469.23
2017-12-29T20:36:50.301Z,99472.11
2017-12-29T20:39:16.265Z,99480.33
2017-12-29T20:41:42.231Z,99484.30
2017-12-29T20:46:39.881Z,99491.92
2017-12-29T20:49:05.870Z,99496.59
2017-12-29T20:51:31.828Z,99494.36
2017-12-29T20:53:57.793Z,99487.48
2017-12-29T20:56:23.759Z,99506.77
2017-12-29T20:58:49.734Z,99501.98
2017-12-29T21:01:15.681Z,99514.14
2017-12-29T21:06:13.532Z,99518.23
2017-12-29T21:08:39.469Z,99517.50
2017-12-29T21:11:05.432Z,99520.00
2017-12-29T21:13:31.394Z,99524.88
2017-12-29T21:15:57.347Z,99530.67
2017-12-29T21:18:23.282Z,99536.91
2017-12-29T21:20:49.233Z,99539.52
2017-12-29T21:23:15.231Z,99547.54
2017-12-29T21:25:41.229Z,99549.30
2017-12-29T21:28:07.245Z,99557.91
2017-12-29T21:30:33.182Z,99560.52
2017-12-29T21:32:59.217Z,99564.72
2017-12-29T21:35:25.193Z,99568.48
2017-12-29T21:37:51.158Z,99573.73
2017-12-29T21:40:17.120Z,99579.39
2017-12-29T21:42:43.069Z,99584.97
2017-12-29T21:45:09.007Z,99587.11
2017-12-29T21:47:35.091Z,99596.72
2017-12-29T21:50:01.073Z,99597.13
2017-12-29T21:52:27.020Z,99600.40
2017-12-29T21:54:52.990Z,99604.09
2017-12-29T21:57:18.925Z,99608.88
2017-12-29T21:59:46.067Z,99609.67
2017-12-29T22:04:45.101Z,99623.39
2017-12-29T22:07:11.061Z,99620.23
2017-12-29T22:09:37.031Z,99630.86
2017-12-29T22:12:02.989Z,99630.40
2017-12-29T22:14:31.127Z,99635.89
2017-12-29T22:16:57.087Z,99648.09
2017-12-29T22:19:23.078Z,99649.81
2017-12-29T22:21:49.033Z,99657.34
2017-12-29T22:24:15.024Z,99663.73
2017-12-29T22:26:41.017Z,99666.30
2017-12-29T22:29:06.982Z,99674.89
2017-12-29T22:31:32.965Z,99676.31
2017-12-29T22:33:58.922Z,99683.98
2017-12-29T22:36:27.017Z,99689.17
2017-12-29T22:38:53.000Z,99693.95
2017-12-29T22:41:18.972Z,99692.29
2017-12-29T22:43:44.995Z,99699.28
2017-12-29T22:46:10.950Z,99702.80
2017-12-29T22:48:37.172Z,99707.79
2017-12-29T22:51:03.149Z,99714.84
2017-12-29T22:53:29.099Z,99713.88
2017-12-29T22:55:55.048Z,99722.14
2017-12-29T22:58:21.030Z,99725.63
2017-12-29T23:00:46.980Z,99722.97
2017-12-29T23:03:12.915Z,99731.30
2017-12-29T23:05:38.891Z,99721.85
2017-12-29T23:08:04.877Z,99723.42
2017-12-29T23:10:30.837Z,99729.92
2017-12-29T23:12:56.791Z,99737.85
2017-12-29T23:15:22.747Z,99738.25
2017-12-29T23:17:48.705Z,99745.88
2017-12-29T23:20:14.691Z,99743.48
2017-12-29T23:22:40.648Z,99743.88
2017-12-29T23:25:06.606Z,99750.37
2017-12-29T23:27:32.541Z,99752.30
2017-12-29T23:29:58.492Z,99751.81
2017-12-29T23:32:24.458Z,99751.75
2017-12-29T23:34:50.414Z,99753.37
2017-12-29T23:37:16.366Z,99756.67
2017-12-29T23:39:42.317Z,99755.95
2017-12-29T23:42:08.266Z,99763.21
2017-12-29T23:44:34.246Z,99760.83
2017-12-29T23:47:00.199Z,99760.67
2017-12-29T23:49:26.186Z,99762.26
2017-12-29T23:51:52.122Z,99773.22
2017-12-29T23:54:18.065Z,99773.27
2017-12-29T23:56:44.019Z,99780.37
2017-12-29T23:59:09.965Z,99776.36
